createdAt,value
2019-02-14T00:01:36.275Z,63.60
2019-02-14T00:04:03.082Z,65.20
2019-02-14T00:06:30.195Z,65.80
2019-02-14T00:08:57.129Z,64.30
2019-02-14T00:11:23.721Z,64.50
2019-02-14T00:13:50.716Z,66.40
2019-02-14T00:16:17.337Z,64.90
2019-02-14T00:18:44.316Z,65.30
2019-02-14T00:21:11.240Z,65.30
2019-02-14T00:23:37.844Z,63.90
2019-02-14T00:26:04.718Z,63.30
2019-02-14T00:28:31.596Z,64.20
2019-02-14T00:30:58.400Z,64.20
2019-02-14T00:33:24.995Z,63.90
2019-02-14T00:35:51.862Z,65.80
2019-02-14T00:38:19.857Z,67.40
2019-02-14T00:40:46.449Z,65.70
2019-02-14T00:43:13.043Z,65.00
2019-02-14T00:45:39.737Z,66.00
2019-02-14T00:48:06.613Z,65.80
2019-02-14T00:50:33.310Z,64.90
2019-02-14T00:52:59.921Z,66.70
2019-02-14T00:55:26.699Z,65.70
2019-02-14T00:57:53.695Z,66.30
2019-02-14T01:00:20.417Z,65.40
2019-02-14T01:02:47.118Z,67.40
2019-02-14T01:05:13.749Z,66.80
2019-02-14T01:07:41.440Z,69.00
2019-02-14T01:10:08.174Z,68.30
2019-02-14T01:12:35.000Z,69.40
2019-02-14T01:15:01.893Z,70.20
2019-02-14T01:17:28.498Z,69.80
2019-02-14T01:19:55.225Z,68.60
2019-02-14T01:22:21.860Z,68.00
2019-02-14T01:24:48.520Z,67.50
2019-02-14T01:27:15.434Z,70.30
2019-02-14T01:29:42.454Z,70.90
2019-02-14T01:32:09.041Z,69.80
2019-02-14T01:34:36.165Z,69.70
2019-02-14T01:37:02.821Z,68.00
2019-02-14T01:39:29.683Z,67.40
2019-02-14T01:41:56.345Z,69.00
2019-02-14T01:44:22.994Z,68.30
2019-02-14T01:46:49.610Z,67.00
2019-02-14T01:49:16.315Z,69.00
2019-02-14T01:51:43.252Z,69.10
2019-02-14T01:54:09.885Z,69.00
2019-02-14T01:56:36.667Z,69.10
2019-02-14T01:59:03.586Z,69.30
2019-02-14T02:01:30.212Z,69.70
2019-02-14T02:03:56.945Z,69.10
2019-02-14T02:06:23.759Z,68.70
2019-02-14T02:08:50.471Z,68.70
2019-02-14T02:11:17.245Z,69.30
2019-02-14T02:13:43.862Z,68.10
2019-02-14T02:16:10.545Z,67.20
2019-02-14T02:18:37.452Z,68.50
2019-02-14T02:21:04.103Z,70.60
2019-02-14T02:23:30.925Z,69.30
2019-02-14T02:25:57.868Z,67.80
2019-02-14T02:28:24.521Z,68.00
2019-02-14T02:30:51.144Z,68.40
2019-02-14T02:33:18.143Z,69.40
2019-02-14T02:35:44.755Z,69.50
2019-02-14T02:38:11.535Z,70.00
2019-02-14T02:40:38.437Z,70.00
2019-02-14T02:43:05.043Z,68.90
2019-02-14T02:45:32.139Z,68.10
2019-02-14T02:47:58.996Z,67.70
2019-02-14T02:50:26.116Z,67.70
2019-02-14T02:52:53.304Z,66.10
2019-02-14T02:55:20.169Z,65.50
2019-02-14T02:57:46.895Z,65.50
2019-02-14T03:00:15.329Z,67.60
2019-02-14T03:02:42.018Z,68.60
2019-02-14T03:05:08.921Z,69.20
2019-02-14T03:07:35.978Z,70.50
2019-02-14T03:10:02.658Z,69.80
2019-02-14T03:12:29.452Z,69.10
2019-02-14T03:14:56.342Z,68.80
2019-02-14T03:17:23.740Z,69.20
2019-02-14T03:19:50.655Z,69.10
2019-02-14T03:22:17.302Z,68.00
2019-02-14T03:24:45.744Z,67.00
2019-02-14T03:27:12.442Z,67.50
2019-02-14T03:29:39.430Z,66.80
2019-02-14T03:32:06.341Z,66.10
2019-02-14T03:34:33.111Z,64.50
2019-02-14T03:37:01.236Z,64.00
2019-02-14T03:39:27.940Z,64.80
2019-02-14T03:41:54.565Z,64.80
2019-02-14T03:44:21.876Z,65.80
2019-02-14T03:46:48.860Z,65.60
2019-02-14T03:49:15.998Z,65.40
2019-02-14T03:51:42.721Z,65.50
2019-02-14T03:54:09.659Z,65.30
2019-02-14T03:56:36.620Z,64.60
2019-02-14T03:59:03.288Z,65.20
2019-02-14T04:01:29.985Z,66.70
2019-02-14T04:03:56.819Z,66.40
2019-02-14T04:06:27.455Z,65.80
2019-02-14T04:08:52.175Z,65.80
2019-02-14T04:11:19.001Z,65.80
2019-02-14T04:13:46.367Z,65.80
2019-02-14T04:16:13.065Z,65.00
2019-02-14T04:18:39.809Z,64.40
2019-02-14T04:21:06.426Z,64.20
2019-02-14T04:23:33.239Z,64.20
2019-02-14T04:26:00.247Z,64.50
2019-02-14T04:28:27.699Z,64.50
2019-02-14T04:30:54.332Z,64.50
2019-02-14T04:33:21.206Z,66.20
2019-02-14T04:35:47.844Z,67.60
2019-02-14T04:38:14.497Z,68.40
2019-02-14T04:40:41.279Z,67.20
2019-02-14T04:45:53.779Z,67.00
2019-02-14T04:48:23.966Z,67.70
2019-02-14T04:50:50.816Z,68.50
2019-02-14T04:53:18.207Z,70.20
2019-02-14T04:55:46.079Z,71.90
2019-02-14T04:58:13.871Z,72.90
2019-02-14T05:00:40.601Z,72.10
2019-02-14T05:03:07.269Z,69.70
2019-02-14T05:05:34.060Z,70.20
2019-02-14T05:08:00.716Z,71.60
2019-02-14T05:10:27.577Z,71.90
2019-02-14T05:12:54.205Z,72.60
2019-02-14T05:15:20.824Z,70.90
2019-02-14T05:17:47.793Z,69.50
2019-02-14T05:20:14.368Z,68.40
2019-02-14T05:22:41.025Z,68.50
2019-02-14T05:25:07.939Z,68.70
2019-02-14T05:27:34.850Z,68.80
2019-02-14T05:30:01.504Z,68.70
2019-02-14T05:32:28.172Z,68.70
2019-02-14T05:34:55.083Z,67.20
2019-02-14T05:37:22.029Z,67.80
2019-02-14T05:39:49.326Z,68.30
2019-02-14T05:42:17.461Z,70.20
2019-02-14T05:44:44.298Z,72.10
2019-02-14T05:47:11.176Z,71.80
2019-02-14T05:49:38.123Z,72.70
2019-02-14T05:52:04.825Z,71.60
2019-02-14T05:54:31.497Z,70.30
2019-02-14T05:56:58.263Z,69.60
2019-02-14T05:59:25.324Z,70.40
2019-02-14T06:01:52.008Z,71.50
2019-02-14T06:04:18.710Z,71.90
2019-02-14T06:06:45.773Z,72.00
2019-02-14T06:09:12.410Z,72.50
2019-02-14T06:11:39.153Z,72.60
2019-02-14T06:14:05.729Z,71.80
2019-02-14T06:16:32.485Z,71.00
2019-02-14T06:19:00.221Z,70.20
2019-02-14T06:21:27.059Z,70.90
2019-02-14T06:23:53.692Z,70.40
2019-02-14T06:26:20.753Z,69.60
2019-02-14T06:28:47.415Z,69.60
2019-02-14T06:31:14.115Z,70.40
2019-02-14T06:33:40.874Z,69.70
2019-02-14T06:36:07.465Z,70.20
2019-02-14T06:38:34.075Z,72.80
2019-02-14T06:41:01.083Z,73.60
2019-02-14T06:43:31.356Z,75.10
2019-02-14T06:46:05.888Z,73.90
2019-02-14T06:48:37.055Z,73.50
2019-02-14T06:51:04.232Z,72.40
2019-02-14T06:53:31.767Z,74.60
2019-02-14T06:56:02.876Z,73.80
2019-02-14T06:58:26.930Z,72.70
2019-02-14T07:00:53.639Z,72.10
2019-02-14T07:03:20.341Z,71.30
2019-02-14T07:05:46.969Z,71.70
2019-02-14T07:08:13.562Z,72.00
2019-02-14T07:10:40.396Z,71.40
2019-02-14T07:13:07.086Z,70.30
2019-02-14T07:15:33.752Z,68.90
2019-02-14T07:18:00.903Z,70.90
2019-02-14T07:20:27.575Z,70.60
2019-02-14T07:22:54.514Z,70.80
2019-02-14T07:25:21.140Z,69.70
2019-02-14T07:27:47.774Z,69.70
2019-02-14T07:30:14.863Z,71.50
2019-02-14T07:32:41.707Z,71.20
2019-02-14T07:35:08.639Z,70.00
2019-02-14T07:37:35.590Z,68.80
2019-02-14T07:40:02.210Z,67.90
2019-02-14T07:42:28.858Z,67.10
2019-02-14T07:44:55.798Z,67.60
2019-02-14T07:47:22.779Z,68.30
2019-02-14T07:49:49.462Z,68.60
2019-02-14T07:52:16.496Z,68.30
2019-02-14T07:54:43.441Z,67.50
2019-02-14T07:59:42.057Z,66.40
2019-02-14T08:02:09.268Z,65.80
2019-02-14T08:04:36.103Z,64.40
2019-02-14T08:07:03.441Z,64.00
2019-02-14T08:09:31.627Z,64.40
2019-02-14T08:11:58.309Z,62.90
2019-02-14T08:14:25.384Z,65.20
2019-02-14T08:17:05.984Z,63.20
2019-02-14T08:19:32.720Z,64.10
2019-02-14T08:21:59.545Z,64.20
2019-02-14T08:24:26.393Z,64.60
2019-02-14T08:26:53.418Z,65.70
2019-02-14T08:29:20.396Z,63.50
2019-02-14T08:31:47.736Z,60.70
2019-02-14T08:34:14.521Z,62.20
2019-02-14T08:36:41.581Z,60.90
2019-02-14T08:39:08.708Z,60.30
2019-02-14T08:41:35.902Z,59.50
2019-02-14T08:44:03.002Z,58.90
2019-02-14T08:46:29.684Z,58.70
2019-02-14T08:48:56.828Z,58.20
2019-02-14T08:51:23.669Z,58.60
2019-02-14T08:53:50.658Z,57.30
2019-02-14T08:56:17.934Z,56.30
2019-02-14T08:58:44.849Z,56.70
2019-02-14T09:01:11.839Z,55.80
2019-02-14T09:03:38.804Z,55.40
2019-02-14T09:06:05.830Z,54.60
2019-02-14T09:08:32.866Z,55.20
2019-02-14T09:10:59.853Z,54.70
2019-02-14T09:13:26.519Z,53.10
2019-02-14T09:15:53.166Z,53.00
2019-02-14T09:18:20.131Z,51.60
2019-02-14T09:20:47.154Z,51.60
2019-02-14T09:23:14.773Z,49.80
2019-02-14T09:25:41.822Z,49.80
2019-02-14T09:28:08.461Z,48.40
2019-02-14T09:30:35.442Z,47.10
2019-02-14T09:33:02.691Z,47.50
2019-02-14T09:35:29.375Z,47.30
2019-02-14T09:38:03.098Z,47.50
2019-02-14T09:40:24.705Z,47.20
2019-02-14T09:42:51.598Z,45.50
2019-02-14T09:45:18.448Z,47.00
2019-02-14T09:47:45.136Z,46.30
2019-02-14T09:50:11.817Z,46.00
2019-02-14T09:52:38.753Z,44.90
2019-02-14T09:55:05.609Z,44.80
2019-02-14T09:57:32.880Z,45.20
2019-02-14T09:59:59.707Z,44.80
2019-02-14T10:04:59.087Z,43.30
2019-02-14T10:07:25.834Z,44.00
2019-02-14T10:09:52.889Z,43.30
2019-02-14T10:12:19.910Z,43.50
2019-02-14T10:14:46.899Z,42.00
2019-02-14T10:17:21.841Z,42.80
2019-02-14T10:19:41.987Z,41.70
2019-02-14T10:22:08.667Z,41.00
2019-02-14T10:24:35.361Z,40.60
2019-02-14T10:27:03.452Z,40.50
2019-02-14T10:29:30.273Z,39.90
2019-02-14T10:31:57.182Z,39.70
2019-02-14T10:34:24.069Z,39.90
2019-02-14T10:36:50.762Z,39.40
2019-02-14T10:39:17.426Z,39.50
2019-02-14T10:41:44.427Z,40.00
2019-02-14T10:44:11.436Z,39.50
2019-02-14T10:46:38.352Z,39.50
2019-02-14T10:49:05.199Z,40.20
2019-02-14T10:51:33.550Z,40.00
2019-02-14T10:54:00.400Z,39.00
2019-02-14T10:56:27.388Z,38.80
2019-02-14T10:58:54.313Z,38.90
2019-02-14T11:01:21.507Z,39.20
2019-02-14T11:03:48.468Z,38.30
2019-02-14T11:06:15.683Z,36.90
2019-02-14T11:08:42.586Z,37.10
2019-02-14T11:11:09.740Z,39.00
2019-02-14T11:13:36.540Z,37.60
2019-02-14T11:16:03.907Z,37.70
2019-02-14T11:18:30.786Z,38.70
2019-02-14T11:20:57.623Z,38.60
2019-02-14T11:23:24.293Z,38.10
2019-02-14T11:25:50.903Z,37.80
2019-02-14T11:28:17.747Z,38.30
2019-02-14T11:30:44.407Z,39.20
2019-02-14T11:33:11.366Z,38.90
2019-02-14T11:35:38.112Z,39.00
2019-02-14T11:38:05.354Z,39.20
2019-02-14T11:40:31.967Z,38.90
2019-02-14T11:42:58.791Z,39.10
2019-02-14T11:45:25.479Z,37.40
2019-02-14T11:47:52.287Z,38.80
2019-02-14T11:50:19.063Z,39.00
2019-02-14T11:52:45.695Z,38.60
2019-02-14T11:55:12.289Z,38.20
2019-02-14T11:57:39.247Z,37.00
2019-02-14T12:00:06.464Z,36.90
2019-02-14T12:02:34.551Z,35.50
2019-02-14T12:05:01.288Z,36.60
2019-02-14T12:07:27.920Z,36.50
2019-02-14T12:09:54.609Z,37.30
2019-02-14T12:12:22.965Z,36.60
2019-02-14T12:14:50.014Z,37.60
2019-02-14T12:17:16.800Z,36.90
2019-02-14T12:19:43.705Z,36.50
2019-02-14T12:22:11.305Z,36.20
2019-02-14T12:24:38.232Z,37.60
2019-02-14T12:27:05.013Z,37.20
2019-02-14T12:29:31.739Z,36.20
2019-02-14T12:31:58.716Z,35.90
2019-02-14T12:34:25.645Z,36.50
2019-02-14T12:36:52.260Z,36.90
2019-02-14T12:39:19.029Z,37.00
2019-02-14T12:41:45.917Z,36.20
2019-02-14T12:44:12.618Z,35.20
2019-02-14T12:46:39.270Z,36.30
2019-02-14T12:49:06.056Z,36.30
2019-02-14T12:51:32.699Z,35.70
2019-02-14T12:53:59.319Z,36.00
2019-02-14T12:56:26.282Z,35.80
2019-02-14T12:58:53.539Z,36.30
2019-02-14T13:01:21.910Z,36.40
2019-02-14T13:03:48.994Z,35.50
2019-02-14T13:06:15.661Z,36.50
2019-02-14T13:08:42.305Z,36.50
2019-02-14T13:11:09.481Z,36.30
2019-02-14T13:13:36.653Z,35.00
2019-02-14T13:16:03.483Z,36.10
2019-02-14T13:18:30.453Z,35.70
2019-02-14T13:20:57.107Z,35.80
2019-02-14T13:23:23.804Z,36.30
2019-02-14T13:25:50.757Z,36.70
2019-02-14T13:28:17.781Z,35.30
2019-02-14T13:30:44.715Z,35.60
2019-02-14T13:33:11.585Z,35.10
2019-02-14T13:35:38.282Z,34.80
2019-02-14T13:38:06.052Z,36.10
2019-02-14T13:40:32.687Z,35.80
2019-02-14T13:42:59.747Z,36.80
2019-02-14T13:45:26.775Z,36.60
2019-02-14T13:47:54.062Z,35.40
2019-02-14T13:50:21.240Z,35.60
2019-02-14T13:52:48.077Z,35.10
2019-02-14T13:55:15.087Z,36.00
2019-02-14T13:57:42.163Z,35.60
2019-02-14T14:00:09.509Z,35.40
2019-02-14T14:02:36.326Z,36.40
2019-02-14T14:05:03.100Z,36.30
2019-02-14T14:07:39.925Z,36.60
2019-02-14T14:09:58.600Z,36.00
2019-02-14T14:12:25.560Z,36.40
2019-02-14T14:14:52.303Z,36.50
2019-02-14T14:17:19.271Z,35.40
2019-02-14T14:19:46.630Z,35.10
2019-02-14T14:22:13.595Z,35.90
2019-02-14T14:24:40.480Z,36.80
2019-02-14T14:27:07.665Z,36.10
2019-02-14T14:29:34.255Z,36.70
2019-02-14T14:32:01.136Z,36.40
2019-02-14T14:34:28.357Z,36.80
2019-02-14T14:36:55.050Z,36.40
2019-02-14T14:39:21.962Z,36.60
2019-02-14T14:41:48.854Z,37.00
2019-02-14T14:44:15.969Z,37.00
2019-02-14T14:46:42.695Z,37.40
2019-02-14T14:49:11.799Z,37.40
2019-02-14T14:51:38.783Z,37.10
2019-02-14T14:54:06.886Z,36.90
2019-02-14T14:56:33.857Z,37.70
2019-02-14T14:59:00.655Z,37.90
2019-02-14T15:01:27.436Z,38.30
2019-02-14T15:03:54.785Z,38.10
2019-02-14T15:06:22.012Z,38.00
2019-02-14T15:08:48.791Z,38.50
2019-02-14T15:11:15.847Z,38.30
2019-02-14T15:13:43.591Z,38.10
2019-02-14T15:16:10.784Z,38.50
2019-02-14T15:18:37.510Z,38.10
2019-02-14T15:21:04.545Z,39.10
2019-02-14T15:23:32.195Z,38.50
2019-02-14T15:25:58.909Z,38.10
2019-02-14T15:28:26.478Z,38.10
2019-02-14T15:30:53.291Z,38.40
2019-02-14T15:33:21.483Z,38.80
2019-02-14T15:35:48.142Z,38.70
2019-02-14T15:38:15.027Z,39.00
2019-02-14T15:40:42.766Z,38.60
2019-02-14T15:43:09.690Z,39.00
2019-02-14T15:45:37.619Z,39.40
2019-02-14T15:48:04.402Z,39.40
2019-02-14T15:50:32.162Z,39.40
2019-02-14T15:52:59.301Z,39.60
2019-02-14T15:55:26.301Z,39.70
2019-02-14T15:57:53.601Z,39.40
2019-02-14T16:00:20.971Z,39.40
2019-02-14T16:02:50.130Z,40.50
2019-02-14T16:05:17.333Z,40.80
2019-02-14T16:07:45.583Z,40.70
2019-02-14T16:10:18.698Z,40.60
2019-02-14T16:12:43.269Z,41.00
2019-02-14T16:15:09.547Z,41.90
2019-02-14T16:17:37.950Z,42.50
2019-02-14T16:20:04.938Z,42.50
2019-02-14T16:22:31.769Z,42.10
2019-02-14T16:24:59.632Z,42.70
2019-02-14T16:27:26.853Z,42.70
2019-02-14T16:32:40.069Z,43.10
2019-02-14T16:35:08.419Z,43.40
2019-02-14T16:37:35.026Z,44.00
2019-02-14T16:40:02.141Z,43.30
2019-02-14T16:42:29.221Z,43.90
2019-02-14T16:44:58.753Z,43.60
2019-02-14T16:47:29.601Z,44.20
2019-02-14T16:49:58.440Z,44.50
2019-02-14T16:52:28.898Z,44.70
2019-02-14T16:54:55.938Z,45.20
2019-02-14T16:57:23.762Z,45.90
2019-02-14T16:59:52.323Z,45.90
2019-02-14T17:02:19.327Z,46.00
2019-02-14T17:04:46.448Z,46.10
2019-02-14T17:07:13.267Z,45.90
2019-02-14T17:09:39.893Z,46.20
2019-02-14T17:12:06.508Z,46.20
2019-02-14T17:14:33.330Z,47.60
2019-02-14T17:16:59.968Z,48.90
2019-02-14T17:19:26.737Z,49.60
2019-02-14T17:21:53.594Z,49.60
2019-02-14T17:24:20.497Z,49.60
2019-02-14T17:26:47.468Z,49.50
2019-02-14T17:29:15.197Z,49.90
2019-02-14T17:31:42.106Z,50.10
2019-02-14T17:34:09.030Z,50.10
2019-02-14T17:36:35.691Z,50.10
2019-02-14T17:39:02.343Z,49.90
2019-02-14T17:41:28.928Z,50.10
2019-02-14T17:43:57.729Z,50.30
2019-02-14T17:46:26.447Z,50.40
2019-02-14T17:48:57.556Z,51.70
2019-02-14T17:51:26.182Z,51.90
2019-02-14T17:53:53.097Z,53.40
2019-02-14T17:56:20.340Z,55.20
2019-02-14T17:58:49.275Z,55.20
2019-02-14T18:01:15.974Z,54.70
2019-02-14T18:03:43.184Z,54.20
2019-02-14T18:06:10.070Z,53.30
2019-02-14T18:08:37.054Z,53.40
2019-02-14T18:11:06.576Z,53.30
2019-02-14T18:13:33.166Z,53.00
2019-02-14T18:16:00.702Z,53.30
2019-02-14T18:18:29.754Z,54.10
2019-02-14T18:20:58.595Z,54.10
2019-02-14T18:23:25.732Z,54.70
2019-02-14T18:25:52.318Z,55.00
2019-02-14T18:28:21.277Z,55.00
2019-02-14T18:30:50.946Z,55.70
2019-02-14T18:33:21.278Z,57.30
2019-02-14T18:35:49.933Z,57.70
2019-02-14T18:38:16.580Z,57.50
2019-02-14T18:40:43.777Z,56.70
2019-02-14T18:45:58.441Z,58.10
2019-02-14T18:48:25.606Z,58.00
2019-02-14T18:50:55.846Z,58.70
2019-02-14T18:53:23.913Z,59.50
2019-02-14T18:55:53.206Z,62.50
2019-02-14T18:58:26.339Z,62.70
2019-02-14T19:00:50.587Z,61.30
2019-02-14T19:03:19.506Z,61.90
2019-02-14T19:05:46.910Z,61.00
2019-02-14T19:08:16.601Z,59.80
2019-02-14T19:10:45.640Z,60.10
2019-02-14T19:13:12.248Z,60.30
2019-02-14T19:15:44.526Z,60.90
2019-02-14T19:18:11.086Z,59.60
2019-02-14T19:20:41.488Z,59.80
2019-02-14T19:23:08.415Z,61.60
2019-02-14T19:25:35.123Z,61.60
2019-02-14T19:28:03.218Z,61.20
2019-02-14T19:30:32.895Z,60.80
2019-02-14T19:33:00.493Z,62.30
2019-02-14T19:35:31.374Z,62.10
2019-02-14T19:38:01.282Z,61.50
2019-02-14T19:43:19.220Z,64.90
2019-02-14T19:45:50.412Z,63.90
2019-02-14T19:48:18.280Z,64.50
2019-02-14T19:50:48.951Z,63.60
2019-02-14T19:53:18.269Z,63.10
2019-02-14T19:55:48.117Z,62.90
2019-02-14T19:58:17.476Z,66.10
2019-02-14T20:00:44.923Z,68.20
2019-02-14T20:03:11.663Z,70.60
2019-02-14T20:05:38.426Z,69.20
2019-02-14T20:08:05.686Z,70.70
2019-02-14T20:10:34.532Z,71.30
2019-02-14T20:13:01.155Z,70.90
2019-02-14T20:15:37.033Z,70.50
2019-02-14T20:18:01.643Z,68.50
2019-02-14T20:20:30.280Z,68.40
2019-02-14T20:22:59.871Z,69.60
2019-02-14T20:25:27.970Z,70.50
2019-02-14T20:27:56.073Z,69.70
2019-02-14T20:30:30.533Z,70.00
2019-02-14T20:33:04.442Z,72.30
2019-02-14T20:35:24.801Z,74.30
2019-02-14T20:37:52.779Z,75.10
2019-02-14T20:40:23.754Z,74.70
2019-02-14T20:42:51.677Z,73.60
2019-02-14T20:45:18.360Z,69.70
2019-02-14T20:47:46.913Z,73.70
2019-02-14T20:50:14.836Z,72.50
2019-02-14T20:52:44.254Z,70.50
2019-02-14T20:55:12.839Z,71.30
2019-02-14T20:57:43.964Z,70.10
2019-02-14T21:00:10.659Z,69.90
2019-02-14T21:02:37.811Z,71.80
2019-02-14T21:05:06.256Z,72.20
2019-02-14T21:07:36.863Z,73.80
2019-02-14T21:10:04.888Z,76.70
2019-02-14T21:12:33.066Z,77.40
2019-02-14T21:15:00.444Z,76.80
2019-02-14T21:17:31.950Z,76.90
2019-02-14T21:20:10.851Z,78.20
2019-02-14T21:22:39.445Z,80.50
2019-02-14T21:25:12.906Z,82.70
2019-02-14T21:27:39.249Z,82.70
2019-02-14T21:30:09.859Z,80.90
2019-02-14T21:32:40.708Z,83.70
2019-02-14T21:35:10.470Z,86.20
2019-02-14T21:37:39.947Z,82.70
2019-02-14T21:40:11.800Z,80.50
2019-02-14T21:42:41.538Z,82.00
2019-02-14T21:45:08.773Z,83.00
2019-02-14T21:47:38.554Z,86.50
2019-02-14T21:50:11.030Z,86.50
2019-02-14T21:52:40.933Z,85.90
2019-02-14T21:55:26.145Z,87.20
2019-02-14T21:57:42.551Z,86.50
2019-02-14T22:00:11.989Z,85.70
2019-02-14T22:02:38.614Z,85.30
2019-02-14T22:05:05.270Z,85.00
2019-02-14T22:07:34.890Z,85.10
2019-02-14T22:10:00.636Z,87.50
2019-02-14T22:12:39.927Z,88.90
2019-02-14T22:14:55.763Z,90.20
2019-02-14T22:17:22.862Z,90.60
2019-02-14T22:19:49.806Z,88.70
2019-02-14T22:22:16.480Z,88.00
2019-02-14T22:24:43.369Z,86.90
2019-02-14T22:27:09.963Z,85.00
2019-02-14T22:29:36.610Z,84.30
2019-02-14T22:32:03.564Z,83.20
2019-02-14T22:34:30.216Z,85.40
2019-02-14T22:36:57.385Z,83.80
2019-02-14T22:39:26.372Z,84.70
2019-02-14T22:41:53.096Z,87.20
2019-02-14T22:44:20.155Z,90.10
2019-02-14T22:46:46.902Z,89.80
2019-02-14T22:49:13.764Z,89.70
2019-02-14T22:51:40.731Z,90.20
2019-02-14T22:54:07.888Z,92.90
2019-02-14T22:56:34.858Z,92.20
2019-02-14T22:59:02.382Z,92.10
2019-02-14T23:01:29.017Z,93.50
2019-02-14T23:03:56.151Z,91.80
2019-02-14T23:06:22.943Z,90.10
2019-02-14T23:08:50.290Z,89.50
2019-02-14T23:11:16.934Z,89.60
2019-02-14T23:13:44.375Z,89.80
2019-02-14T23:16:11.047Z,91.40
2019-02-14T23:18:38.265Z,89.90
2019-02-14T23:21:05.949Z,90.00
2019-02-14T23:23:32.567Z,92.70
2019-02-14T23:25:59.341Z,92.30
2019-02-14T23:28:26.291Z,92.50
2019-02-14T23:30:53.187Z,91.90
2019-02-14T23:33:20.629Z,91.50
2019-02-14T23:35:47.280Z,91.50
2019-02-14T23:38:14.229Z,92.90
2019-02-14T23:40:41.227Z,92.30
2019-02-14T23:43:08.635Z,91.60
2019-02-14T23:45:35.500Z,93.00
2019-02-14T23:48:02.720Z,94.30
2019-02-14T23:50:29.663Z,93.20
2019-02-14T23:52:56.368Z,92.60
2019-02-14T23:55:23.054Z,91.60
2019-02-14T23:57:50.833Z,91.90
